El Paso, TX (88541)

4:39 AM MDT on July 28, 2016 (GMT -0600)
Montwood and Wedgewood | | Change Station

Elev 3957 ft 31.77 °N, 106.35 °W | Updated 3 minutes ago

Partly Cloudy
Partly Cloudy
73.6 °F
Feels Like 76 °F
N
0.0
Wind Variable Wind from ENE
Gusts 0.0 mph

Today
High -- | Low -- °F
--% Chance of Precip.
Yesterday
High -- | Low -- °F
Precip. -- in
Pressure 29.84 in
Visibility 10.0 miles
Clouds Few 16000 ft
Few 25000 ft
Heat Index 76 °F
Dew Point 61 °F
Humidity 64%
Rainfall 0.00 in
Snow Depth Not available.
6:19 AM 8:04 PM
Waning Crescent, 33% visible
METAR KELP 280951Z 36003KT 10SM FEW160 FEW250 26/16 A3008 RMK AO2 SLP103 CB DSNT NW MOV SW T02560161
Pressure 29.84 in
Visibility 10.0 miles
Clouds Few 16000 ft
Few 25000 ft
Heat Index 76 °F
Dew Point 61 °F
Humidity 64%
Rainfall 0.00 in
Snow Depth Not available.
6:19 AM 8:04 PM
Waning Crescent, 33% visible
METAR KELP 280951Z 36003KT 10SM FEW160 FEW250 26/16 A3008 RMK AO2 SLP103 CB DSNT NW MOV SW T02560161

10-Day Weather Forecast

Almanac

Astronomy

Jul. 28, 2016 Rise Set
Actual Time
Civil Twilight
Nautical Twilight
Astronomical Twilight
Moon
Length of Visible Light
Length of Day
Tomorrow will be .
, % of the Moon is Illuminated

Today's Extremes

State Highs State Lows

Community

WunderPhotos

Upload Photos

1,928,081 photos uploaded!

WunderBlog® & News

Nearby

Air Quality

  Air Quality AQ Index Pollutant
Not available.

Snow Depth

Station Depth Elevation

Earthquake Activity

City Distance Mag. Time & Date
Minimum magnitude displayed is 2.5.

Coastal Water Temperatures

Place Temperature

Stations

Nearby Weather Stations

Station Location Temp. Windchill Dew Point Humidity Wind Precip. Elev Updated Type
                   

Watches & Warnings

There are currently no watches in effect.